createdAt,value
2022-08-28T00:00:29.618Z,99896.06
2022-08-28T00:02:58.221Z,99890.69
2022-08-28T00:05:29.454Z,99886.22
2022-08-28T00:07:58.087Z,99887.81
2022-08-28T00:10:26.884Z,99886.03
2022-08-28T00:12:57.407Z,99889.53
2022-08-28T00:15:31.780Z,99892.13
2022-08-28T00:17:59.975Z,99889.41
2022-08-28T00:20:28.605Z,99888.53
2022-08-28T00:22:56.523Z,99884.19
2022-08-28T00:25:27.355Z,99886.97
2022-08-28T00:27:57.439Z,99890.38
2022-08-28T00:30:30.186Z,99879.91
2022-08-28T00:33:01.281Z,99888.66
2022-08-28T00:35:29.586Z,99891.22
2022-08-28T00:37:57.941Z,99886.00
2022-08-28T00:40:32.414Z,99885.94
2022-08-28T00:43:01.768Z,99890.38
2022-08-28T00:45:36.003Z,99889.44
2022-08-28T00:48:06.741Z,99889.50
2022-08-28T00:51:00.414Z,99892.13
2022-08-28T00:53:29.053Z,99887.84
2022-08-28T00:56:00.829Z,99894.75
2022-08-28T00:58:28.519Z,99892.16
2022-08-28T01:00:57.545Z,99888.66
2022-08-28T01:03:26.543Z,99893.03
2022-08-28T01:05:54.699Z,99888.69
2022-08-28T01:08:23.038Z,99898.25
2022-08-28T01:10:56.521Z,99891.22
2022-08-28T01:13:26.769Z,99891.16
2022-08-28T01:15:55.652Z,99888.53
2022-08-28T01:18:26.058Z,99893.88
2022-08-28T01:21:00.539Z,99895.75
2022-08-28T01:23:45.674Z,99886.19
2022-08-28T01:26:13.358Z,99893.28
2022-08-28T01:28:41.315Z,99887.22
2022-08-28T01:31:11.339Z,99894.97
2022-08-28T01:33:41.368Z,99884.59
2022-08-28T01:36:12.107Z,99889.78
2022-08-28T01:38:40.328Z,99888.03
2022-08-28T01:41:09.715Z,99891.56
2022-08-28T01:43:37.445Z,99882.84
2022-08-28T01:46:06.415Z,99888.19
2022-08-28T01:48:36.798Z,99884.88
2022-08-28T01:51:05.844Z,99891.13
2022-08-28T01:53:34.740Z,99892.34
2022-08-28T01:56:05.488Z,99899.56
2022-08-28T01:58:38.274Z,99895.47
2022-08-28T02:01:10.717Z,99898.34
2022-08-28T02:03:38.629Z,99894.69
2022-08-28T02:06:07.032Z,99891.88
2022-08-28T02:08:34.689Z,99891.72
2022-08-28T02:11:02.324Z,99899.50
2022-08-28T02:13:29.987Z,99900.25
2022-08-28T02:15:59.476Z,99901.00
2022-08-28T02:18:27.216Z,99904.34
2022-08-28T02:20:54.865Z,99894.03
2022-08-28T02:23:22.870Z,99906.19
2022-08-28T02:25:50.785Z,99896.63
2022-08-28T02:28:18.586Z,99897.44
2022-08-28T02:30:46.445Z,99907.72
2022-08-28T02:33:16.074Z,99912.03
2022-08-28T02:35:44.321Z,99912.91
2022-08-28T02:38:12.123Z,99912.06
2022-08-28T02:40:41.182Z,99907.00
2022-08-28T02:43:08.861Z,99904.47
2022-08-28T02:45:37.020Z,99915.72
2022-08-28T02:48:05.373Z,99904.31
2022-08-28T02:50:46.125Z,99905.19
2022-08-28T02:53:14.460Z,99901.72
2022-08-28T02:55:42.115Z,99906.09
2022-08-28T02:58:10.109Z,99904.31
2022-08-28T03:00:37.768Z,99899.31
2022-08-28T03:03:05.511Z,99896.00
2022-08-28T03:05:33.103Z,99896.13
2022-08-28T03:08:02.090Z,99894.41
2022-08-28T03:10:29.693Z,99898.13
2022-08-28T03:12:57.376Z,99899.91
2022-08-28T03:15:25.095Z,99898.13
2022-08-28T03:17:52.745Z,99898.84
2022-08-28T03:20:20.566Z,99890.91
2022-08-28T03:23:07.898Z,99900.38
2022-08-28T03:25:37.042Z,99896.03
2022-08-28T03:28:05.012Z,99897.69
2022-08-28T03:30:32.771Z,99897.63
2022-08-28T03:33:01.072Z,99891.53
2022-08-28T03:35:28.750Z,99889.78
2022-08-28T03:37:56.355Z,99903.72
2022-08-28T03:40:24.528Z,99902.91
2022-08-28T03:42:53.796Z,99909.81
2022-08-28T03:45:22.286Z,99908.00
2022-08-28T03:47:50.852Z,99908.88
2022-08-28T03:50:19.799Z,99917.63
2022-08-28T03:52:47.678Z,99919.31
2022-08-28T03:55:15.750Z,99921.09
2022-08-28T03:57:43.473Z,99919.38
2022-08-28T04:00:14.353Z,99922.81
2022-08-28T04:02:42.502Z,99918.44
2022-08-28T04:05:11.206Z,99911.44
2022-08-28T04:07:39.379Z,99920.06
2022-08-28T04:10:08.444Z,99913.03
2022-08-28T04:12:37.092Z,99909.50
2022-08-28T04:15:07.124Z,99919.97
2022-08-28T04:17:38.591Z,99914.72
2022-08-28T04:20:07.778Z,99917.31
2022-08-28T04:22:37.097Z,99919.94
2022-08-28T04:25:05.398Z,99919.06
2022-08-28T04:27:33.106Z,99921.66
2022-08-28T04:30:00.924Z,99921.66
2022-08-28T04:32:28.888Z,99916.38
2022-08-28T04:34:57.826Z,99918.16
2022-08-28T04:37:25.468Z,99918.16
2022-08-28T04:39:55.752Z,99929.53
2022-08-28T04:42:23.521Z,99925.16
2022-08-28T04:44:51.332Z,99928.63
2022-08-28T04:47:18.969Z,99931.22
2022-08-28T04:49:46.595Z,99925.94
2022-08-28T04:52:15.601Z,99926.81
2022-08-28T04:54:43.177Z,99926.78
2022-08-28T04:57:10.785Z,99935.44
2022-08-28T04:59:39.062Z,99938.06
2022-08-28T05:02:06.752Z,99941.59
2022-08-28T05:04:34.432Z,99942.59
2022-08-28T05:07:02.149Z,99940.84
2022-08-28T05:09:31.803Z,99939.91
2022-08-28T05:12:03.723Z,99939.16
2022-08-28T05:14:31.536Z,99951.38
2022-08-28T05:16:59.834Z,99943.44
2022-08-28T05:19:28.998Z,99950.34
2022-08-28T05:21:56.645Z,99949.41
2022-08-28T05:24:24.326Z,99948.47
2022-08-28T05:26:53.300Z,99946.66
2022-08-28T05:29:21.068Z,99951.91
2022-08-28T05:31:52.953Z,99952.72
2022-08-28T05:34:21.713Z,99954.53
2022-08-28T05:36:49.386Z,99956.13
2022-08-28T05:39:18.280Z,99951.69
2022-08-28T05:41:46.536Z,99949.84
2022-08-28T05:44:17.805Z,99959.38
2022-08-28T05:46:48.402Z,99952.34
2022-08-28T05:49:17.709Z,99954.06
2022-08-28T05:51:45.456Z,99953.16
2022-08-28T05:54:14.796Z,99948.88
2022-08-28T05:56:44.120Z,99946.16
2022-08-28T05:59:13.410Z,99952.16
2022-08-28T06:01:45.573Z,99957.31
2022-08-28T06:04:17.539Z,99955.56
2022-08-28T06:06:46.113Z,99965.03
2022-08-28T06:09:15.881Z,99969.31
2022-08-28T06:11:46.241Z,99965.88
2022-08-28T06:14:16.532Z,99970.16
2022-08-28T06:16:49.495Z,99969.19
2022-08-28T06:19:18.883Z,99976.13
2022-08-28T06:21:48.159Z,99969.19
2022-08-28T06:24:15.974Z,99970.91
2022-08-28T06:26:43.630Z,99968.25
2022-08-28T06:29:13.670Z,99970.63
2022-08-28T06:31:41.354Z,99976.69
2022-08-28T06:34:10.570Z,99980.94
2022-08-28T06:36:41.675Z,99985.19
2022-08-28T06:39:11.043Z,99991.16
2022-08-28T06:41:42.825Z,99977.91
2022-08-28T06:44:12.385Z,99989.03
2022-08-28T06:46:40.960Z,99984.78
2022-08-28T06:49:10.022Z,99989.03
2022-08-28T06:51:38.313Z,99997.00
2022-08-28T06:54:06.455Z,99986.53
2022-08-28T06:56:34.523Z,99989.41
2022-08-28T06:59:02.720Z,99988.50
2022-08-28T07:01:32.944Z,99990.88
2022-08-28T07:04:03.936Z,99997.66
2022-08-28T07:06:35.380Z,100004.44
2022-08-28T07:09:05.163Z,100006.97
2022-08-28T07:11:34.516Z,100015.69
2022-08-28T07:14:02.963Z,100006.91
2022-08-28T07:16:33.085Z,100011.19
2022-08-28T07:19:03.392Z,100010.25
2022-08-28T07:21:31.901Z,100010.09
2022-08-28T07:24:03.263Z,100010.69
2022-08-28T07:26:30.942Z,100011.56
2022-08-28T07:29:09.971Z,100018.47
2022-08-28T07:31:40.680Z,100011.47
2022-08-28T07:34:09.449Z,100017.38
2022-08-28T07:36:37.373Z,100014.75
2022-08-28T07:39:07.456Z,100013.84
2022-08-28T07:41:39.095Z,100023.16
2022-08-28T07:44:25.432Z,100016.69
2022-08-28T07:46:54.931Z,100029.41
2022-08-28T07:49:23.668Z,100022.19
2022-08-28T07:51:54.218Z,100020.97
2022-08-28T07:54:23.632Z,100029.81
2022-08-28T07:56:52.585Z,100030.66
2022-08-28T07:59:22.129Z,100038.31
2022-08-28T08:01:52.145Z,100042.66
2022-08-28T08:04:21.993Z,100043.50
2022-08-28T08:06:55.622Z,100047.69
2022-08-28T08:09:27.380Z,100034.50
2022-08-28T08:11:57.265Z,100056.94
2022-08-28T08:14:25.573Z,100055.97
2022-08-28T08:16:53.409Z,100049.75
2022-08-28T08:19:21.391Z,100056.72
2022-08-28T08:21:53.280Z,100064.50
2022-08-28T08:24:25.737Z,100061.53
2022-08-28T08:26:59.624Z,100064.91
2022-08-28T08:29:29.504Z,100067.59
2022-08-28T08:31:58.760Z,100070.09
2022-08-28T08:34:26.725Z,100071.91
2022-08-28T08:36:55.074Z,100067.41
2022-08-28T08:39:22.689Z,100072.66
2022-08-28T08:41:53.026Z,100076.66
2022-08-28T08:44:28.065Z,100073.09
2022-08-28T08:47:14.083Z,100082.34
2022-08-28T08:49:48.799Z,100079.28
2022-08-28T08:52:28.997Z,100077.06
2022-08-28T08:55:07.111Z,100080.22
2022-08-28T08:57:37.623Z,100088.91
2022-08-28T09:00:13.671Z,100084.88
2022-08-28T09:02:49.288Z,100090.63
2022-08-28T09:05:19.946Z,100086.50
2022-08-28T09:07:56.584Z,100096.84
2022-08-28T09:10:25.314Z,100103.63
2022-08-28T09:12:58.695Z,100102.31
2022-08-28T09:15:32.874Z,100095.03
2022-08-28T09:18:11.656Z,100103.06
2022-08-28T09:20:39.673Z,100093.75
2022-08-28T09:23:12.730Z,100097.91
2022-08-28T09:25:48.614Z,100100.47
2022-08-28T09:28:22.702Z,100091.13
2022-08-28T09:31:04.902Z,100093.22
2022-08-28T09:33:41.764Z,100099.72
2022-08-28T09:36:32.704Z,100098.28
2022-08-28T09:39:09.847Z,100104.19
2022-08-28T09:42:11.933Z,100102.34
2022-08-28T09:44:52.183Z,100098.38
2022-08-28T09:47:48.680Z,100106.88
2022-08-28T09:50:20.913Z,100096.03
2022-08-28T09:52:48.946Z,100095.16
2022-08-28T09:55:26.609Z,100092.78
2022-08-28T09:57:55.340Z,100087.75
2022-08-28T10:00:23.757Z,100078.72
2022-08-28T10:03:03.296Z,100091.41
2022-08-28T10:05:41.544Z,100094.56
2022-08-28T10:08:27.396Z,100090.91
2022-08-28T10:10:58.665Z,100096.84
2022-08-28T10:13:31.448Z,100093.88
2022-08-28T10:16:21.002Z,100095.88
2022-08-28T10:18:56.334Z,100092.28
2022-08-28T10:21:30.425Z,100095.94
2022-08-28T10:24:27.444Z,100093.56
2022-08-28T10:27:06.316Z,100096.81
2022-08-28T10:29:45.447Z,100102.94
2022-08-28T10:32:28.192Z,100095.38
2022-08-28T10:35:06.909Z,100094.28
2022-08-28T10:37:49.015Z,100091.50
2022-08-28T10:40:24.339Z,100094.72
2022-08-28T10:42:56.990Z,100098.28
2022-08-28T10:45:26.649Z,100086.59
2022-08-28T10:47:58.608Z,100090.88
2022-08-28T10:50:31.008Z,100084.28
2022-08-28T10:53:02.718Z,100084.63
2022-08-28T10:55:36.817Z,100084.63
2022-08-28T10:58:24.522Z,100084.22
2022-08-28T11:00:56.133Z,100082.56
2022-08-28T11:03:34.686Z,100080.56
2022-08-28T11:06:11.300Z,100077.59
2022-08-28T11:08:40.609Z,100088.28
2022-08-28T11:11:14.368Z,100083.16
2022-08-28T11:13:51.790Z,100081.44
2022-08-28T11:16:22.923Z,100075.69
2022-08-28T11:19:43.400Z,100078.88
2022-08-28T11:22:16.835Z,100088.00
2022-08-28T11:24:50.482Z,100085.13
2022-08-28T11:27:26.877Z,100078.00
2022-08-28T11:30:04.808Z,100076.09
2022-08-28T11:32:58.365Z,100073.66
2022-08-28T11:35:49.369Z,100072.72
2022-08-28T11:38:52.962Z,100079.47
2022-08-28T11:41:26.524Z,100071.63
2022-08-28T11:44:29.025Z,100078.59
2022-08-28T11:47:36.192Z,100072.53
2022-08-28T11:50:12.749Z,100069.09
2022-08-28T11:53:07.259Z,100068.41
2022-08-28T11:55:51.488Z,100058.09
2022-08-28T11:58:28.299Z,100064.66
2022-08-28T12:01:04.387Z,100069.91
2022-08-28T12:03:36.668Z,100067.84
2022-08-28T12:06:05.196Z,100073.72
2022-08-28T12:09:10.028Z,100067.94
2022-08-28T12:12:05.475Z,100079.63
2022-08-28T12:15:07.440Z,100068.16
2022-08-28T12:17:47.964Z,100073.88
2022-08-28T12:20:39.701Z,100059.19
2022-08-28T12:23:39.438Z,100061.22
2022-08-28T12:26:10.599Z,100056.50
2022-08-28T12:28:47.526Z,100060.00
2022-08-28T12:32:02.645Z,100059.88
2022-08-28T12:35:02.050Z,100051.19
2022-08-28T12:37:51.370Z,100055.44
2022-08-28T12:40:24.581Z,100053.06
2022-08-28T12:42:55.695Z,100047.38
2022-08-28T12:45:27.809Z,100054.97
2022-08-28T12:47:59.998Z,100040.00
2022-08-28T12:50:32.969Z,100048.50
2022-08-28T12:53:01.686Z,100046.22
2022-08-28T12:55:29.560Z,100052.44
2022-08-28T12:57:57.315Z,100040.47
2022-08-28T13:00:33.171Z,100037.72
2022-08-28T13:03:01.554Z,100033.38
2022-08-28T13:05:36.036Z,100031.25
2022-08-28T13:08:07.032Z,100030.44
2022-08-28T13:10:37.791Z,100033.66
2022-08-28T13:13:08.474Z,100025.69
2022-08-28T13:15:57.886Z,100027.19
2022-08-28T13:18:45.313Z,100029.16
2022-08-28T13:21:33.525Z,100019.16
2022-08-28T13:24:42.730Z,100021.38
2022-08-28T13:27:22.382Z,100020.88
2022-08-28T13:30:00.085Z,100015.31
2022-08-28T13:32:30.529Z,100014.81
2022-08-28T13:35:24.738Z,100013.91
2022-08-28T13:37:55.128Z,100011.31
2022-08-28T13:40:55.611Z,100007.53
2022-08-28T13:43:15.505Z,100011.19
2022-08-28T13:45:48.113Z,100008.97
2022-08-28T13:48:17.762Z,100006.78
2022-08-28T13:50:47.606Z,100000.53
2022-08-28T13:53:20.649Z,100005.84
2022-08-28T13:55:50.117Z,100003.28
2022-08-28T13:58:19.209Z,99996.97
2022-08-28T14:00:48.759Z,99995.38
2022-08-28T14:03:34.744Z,99983.53
2022-08-28T14:06:03.461Z,99984.78
2022-08-28T14:08:31.537Z,99992.41
2022-08-28T14:10:59.387Z,99989.28
2022-08-28T14:13:28.461Z,99987.31
2022-08-28T14:15:57.469Z,99983.16
2022-08-28T14:18:25.940Z,99984.91
2022-08-28T14:20:53.916Z,99977.56
2022-08-28T14:23:22.901Z,99981.09
2022-08-28T14:25:50.769Z,99979.41
2022-08-28T14:28:18.981Z,99970.03
2022-08-28T14:30:50.420Z,99964.81
2022-08-28T14:33:20.822Z,99972.06
2022-08-28T14:35:49.735Z,99965.03
2022-08-28T14:38:17.897Z,99968.41
2022-08-28T14:40:46.202Z,99967.31
2022-08-28T14:43:15.370Z,99954.44
2022-08-28T14:45:45.021Z,99961.19
2022-08-28T14:48:14.471Z,99963.56
2022-08-28T14:50:43.874Z,99962.41
2022-08-28T14:53:12.619Z,99964.69
2022-08-28T14:55:42.061Z,99961.50
2022-08-28T14:58:09.716Z,99962.97
2022-08-28T15:00:42.104Z,99949.31
2022-08-28T15:03:10.215Z,99954.13
2022-08-28T15:05:39.279Z,99950.88
2022-08-28T15:08:08.691Z,99946.09
2022-08-28T15:10:38.671Z,99943.31
2022-08-28T15:13:07.714Z,99949.44
2022-08-28T15:15:36.545Z,99952.75
2022-08-28T15:18:04.421Z,99950.13
2022-08-28T15:20:32.588Z,99944.63
2022-08-28T15:23:01.603Z,99938.00
2022-08-28T15:25:29.222Z,99945.63
2022-08-28T15:27:56.952Z,99949.44
2022-08-28T15:30:24.557Z,99947.94
2022-08-28T15:32:52.623Z,99951.94
2022-08-28T15:35:20.321Z,99942.75
2022-08-28T15:37:47.940Z,99943.50
2022-08-28T15:40:34.715Z,99942.47
2022-08-28T15:43:02.398Z,99937.91
2022-08-28T15:45:30.156Z,99943.41
2022-08-28T15:47:58.573Z,99942.16
2022-08-28T15:50:26.353Z,99935.31
2022-08-28T15:52:53.990Z,99934.66
2022-08-28T15:55:23.472Z,99928.81
2022-08-28T15:57:51.176Z,99937.72
2022-08-28T16:00:19.061Z,99938.97
2022-08-28T16:02:46.693Z,99928.47
2022-08-28T16:05:14.420Z,99938.88
2022-08-28T16:07:42.405Z,99939.03
2022-08-28T16:10:13.301Z,99934.16
2022-08-28T16:12:42.529Z,99940.50
2022-08-28T16:15:12.216Z,99937.53
2022-08-28T16:17:39.811Z,99939.84
2022-08-28T16:20:12.374Z,99936.78
2022-08-28T16:22:41.385Z,99942.44
2022-08-28T16:25:10.633Z,99931.00
2022-08-28T16:27:38.236Z,99931.75
2022-08-28T16:30:15.891Z,99935.00
2022-08-28T16:32:59.677Z,99931.78
2022-08-28T16:35:27.352Z,99928.94
2022-08-28T16:37:54.994Z,99930.59
2022-08-28T16:40:23.392Z,99917.41
2022-08-28T16:42:52.096Z,99919.13
2022-08-28T16:45:21.567Z,99921.16
2022-08-28T16:47:50.028Z,99926.66
2022-08-28T16:50:19.308Z,99925.41
2022-08-28T16:52:47.561Z,99928.13
2022-08-28T16:55:15.332Z,99926.13
2022-08-28T16:57:43.097Z,99923.28
2022-08-28T17:00:13.644Z,99929.69
2022-08-28T17:02:43.739Z,99922.72
2022-08-28T17:05:12.122Z,99919.66
2022-08-28T17:07:40.947Z,99921.31
2022-08-28T17:10:10.404Z,99920.56
2022-08-28T17:12:38.322Z,99916.66
2022-08-28T17:15:07.268Z,99913.22
2022-08-28T17:17:35.531Z,99920.88
2022-08-28T17:20:07.717Z,99923.22
2022-08-28T17:22:34.500Z,99923.44
2022-08-28T17:25:07.434Z,99926.56
2022-08-28T17:27:36.501Z,99933.41
2022-08-28T17:30:05.442Z,99934.81
2022-08-28T17:32:33.362Z,99932.44
2022-08-28T17:35:05.325Z,99933.06
2022-08-28T17:37:33.005Z,99939.47
2022-08-28T17:40:00.693Z,99938.41
2022-08-28T17:42:28.411Z,99937.19
2022-08-28T17:44:56.077Z,99943.50
2022-08-28T17:47:30.742Z,99931.44
2022-08-28T17:49:59.583Z,99940.88
2022-08-28T17:52:29.435Z,99937.69
2022-08-28T17:54:57.268Z,99945.03
2022-08-28T17:57:25.343Z,99947.47
2022-08-28T17:59:52.996Z,99941.00
2022-08-28T18:02:20.689Z,99944.13
2022-08-28T18:04:48.382Z,99951.72
2022-08-28T18:07:16.154Z,99953.97
2022-08-28T18:09:45.144Z,99965.28
2022-08-28T18:12:13.548Z,99962.69
2022-08-28T18:14:41.362Z,99965.84
2022-08-28T18:17:10.632Z,99963.81
2022-08-28T18:19:39.956Z,99969.28
2022-08-28T18:22:08.822Z,99972.91
2022-08-28T18:24:36.637Z,99968.31
2022-08-28T18:27:07.157Z,99972.59
2022-08-28T18:29:35.030Z,99983.88
2022-08-28T18:32:02.812Z,99988.75
2022-08-28T18:34:32.852Z,99992.78
2022-08-28T18:37:00.833Z,99995.19
2022-08-28T18:39:29.825Z,99989.56
2022-08-28T18:41:58.847Z,99991.13
2022-08-28T18:44:27.841Z,100000.63
2022-08-28T18:46:55.640Z,100005.53
2022-08-28T18:49:23.413Z,100008.97
2022-08-28T18:51:51.072Z,100003.56
2022-08-28T18:54:20.551Z,100012.63
2022-08-28T18:56:49.689Z,100015.47
2022-08-28T18:59:18.594Z,100014.00
2022-08-28T19:01:47.650Z,100019.69
2022-08-28T19:04:15.334Z,100020.75
2022-08-28T19:06:43.004Z,100024.63
2022-08-28T19:09:20.185Z,100033.78
2022-08-28T19:11:48.863Z,100042.91
2022-08-28T19:14:16.548Z,100048.38
2022-08-28T19:16:44.366Z,100047.69
2022-08-28T19:19:15.608Z,100038.31
2022-08-28T19:21:43.963Z,100043.69
2022-08-28T19:24:11.869Z,100054.34
2022-08-28T19:26:39.562Z,100049.38
2022-08-28T19:29:07.228Z,100047.13
2022-08-28T19:31:37.979Z,100050.88
2022-08-28T19:34:07.018Z,100050.03
2022-08-28T19:36:36.960Z,100057.94
2022-08-28T19:39:04.951Z,100056.34
2022-08-28T19:41:36.756Z,100064.41
2022-08-28T19:44:05.029Z,100060.19
2022-08-28T19:46:34.192Z,100065.47
2022-08-28T19:49:03.372Z,100064.81
2022-08-28T19:51:31.480Z,100071.84
2022-08-28T19:54:00.520Z,100069.28
2022-08-28T19:56:29.671Z,100083.31
2022-08-28T19:58:59.079Z,100079.00
2022-08-28T20:01:29.376Z,100086.13
2022-08-28T20:03:57.972Z,100082.94
2022-08-28T20:06:25.742Z,100083.97
2022-08-28T20:08:53.307Z,100084.94
2022-08-28T20:11:24.980Z,100085.06
2022-08-28T20:13:53.071Z,100083.38
2022-08-28T20:16:21.404Z,100089.59
2022-08-28T20:18:50.288Z,100085.44
2022-08-28T20:21:36.886Z,100095.25
2022-08-28T20:24:07.341Z,100093.59
2022-08-28T20:26:36.373Z,100095.38
2022-08-28T20:29:04.228Z,100098.09
2022-08-28T20:31:31.933Z,100098.19
2022-08-28T20:33:59.591Z,100102.53
2022-08-28T20:36:27.446Z,100097.34
2022-08-28T20:38:55.349Z,100100.03
2022-08-28T20:41:23.169Z,100100.09
2022-08-28T20:43:52.291Z,100099.28
2022-08-28T20:46:20.136Z,100103.72
2022-08-28T20:48:47.945Z,100102.84
2022-08-28T20:51:15.640Z,100097.69
2022-08-28T20:53:43.272Z,100108.22
2022-08-28T20:56:11.280Z,100108.38
2022-08-28T20:58:39.684Z,100106.69
2022-08-28T21:01:08.690Z,100107.63
2022-08-28T21:03:36.434Z,100109.41
2022-08-28T21:06:04.041Z,100105.00
2022-08-28T21:08:31.680Z,100111.22
2022-08-28T21:10:59.309Z,100111.25
2022-08-28T21:13:27.116Z,100106.09
2022-08-28T21:15:54.772Z,100121.72
2022-08-28T21:18:23.712Z,100120.88
2022-08-28T21:20:51.405Z,100133.16
2022-08-28T21:23:19.695Z,100134.19
2022-08-28T21:25:48.280Z,100134.31
2022-08-28T21:28:16.015Z,100132.63
2022-08-28T21:30:43.753Z,100135.28
2022-08-28T21:33:11.976Z,100137.91
2022-08-28T21:35:42.441Z,100135.31
2022-08-28T21:38:10.088Z,100136.22
2022-08-28T21:40:37.762Z,100138.78
2022-08-28T21:43:05.428Z,100137.91
2022-08-28T21:45:33.077Z,100139.66
2022-08-28T21:48:00.925Z,100138.81
2022-08-28T21:50:29.027Z,100146.72
2022-08-28T21:52:58.027Z,100148.50
2022-08-28T21:55:25.912Z,100146.75
2022-08-28T21:57:53.544Z,100145.09
2022-08-28T22:00:24.181Z,100141.59
2022-08-28T22:02:52.229Z,100146.84
2022-08-28T22:05:20.352Z,100152.91
2022-08-28T22:07:48.125Z,100148.59
2022-08-28T22:10:17.321Z,100154.69
2022-08-28T22:12:44.961Z,100150.41
2022-08-28T22:15:13.049Z,100149.50
2022-08-28T22:17:40.830Z,100148.69
2022-08-28T22:20:09.765Z,100149.59
2022-08-28T22:22:54.716Z,100154.00
2022-08-28T22:25:24.004Z,100153.19
2022-08-28T22:27:51.610Z,100153.16
2022-08-28T22:30:19.608Z,100144.50
2022-08-28T22:32:47.223Z,100157.53
2022-08-28T22:35:14.904Z,100153.91
2022-08-28T22:37:42.841Z,100153.00
2022-08-28T22:40:13.616Z,100152.13
2022-08-28T22:42:43.515Z,100150.28
2022-08-28T22:45:11.439Z,100150.19
2022-08-28T22:47:39.531Z,100157.13
2022-08-28T22:50:08.428Z,100155.38
2022-08-28T22:52:37.084Z,100157.13
2022-08-28T22:55:06.594Z,100159.72
2022-08-28T22:57:34.304Z,100160.56
2022-08-28T23:00:05.401Z,100164.03
2022-08-28T23:02:33.097Z,100165.81
2022-08-28T23:05:00.749Z,100167.53
2022-08-28T23:07:28.388Z,100167.53
2022-08-28T23:09:56.013Z,100159.88
2022-08-28T23:12:24.006Z,100164.31
2022-08-28T23:14:51.924Z,100162.53
2022-08-28T23:17:20.908Z,100157.25
2022-08-28T23:19:49.190Z,100156.38
2022-08-28T23:22:17.935Z,100148.69
2022-08-28T23:24:46.504Z,100156.63
2022-08-28T23:27:35.489Z,100156.66
2022-08-28T23:30:02.423Z,100150.56
2022-08-28T23:32:31.347Z,100155.72
2022-08-28T23:35:01.812Z,100152.22
2022-08-28T23:37:29.517Z,100151.31
2022-08-28T23:39:58.976Z,100152.16
2022-08-28T23:42:28.488Z,100157.31
2022-08-28T23:44:56.802Z,100153.81
2022-08-28T23:47:24.434Z,100161.63
2022-08-28T23:49:53.380Z,100159.97
2022-08-28T23:52:20.986Z,100161.00
2022-08-28T23:54:49.827Z,100158.53
2022-08-28T23:57:17.815Z,100160.25
2022-08-28T23:59:45.553Z,100166.31
